Aérodrome :
LOGIN :

S'inscrire | Disclaimer

   EN    FR    IT 

 










Légende :    VFR   VFR Marginal   IFR   IFR Intensif   IFR Très Intensif
Visi : 
Plafond : 
>= 8 km
>= 3000ft
5 à 8 km
1000 à 3000 ft
1500m à 5 km
500 à 1000 ft
800 à 1500m
200 à 500 ft
< 800m
< 200 ft
Symboles :   Orages  Brouillard  Fortes neiges  Fortes précipitations  Vent > 20 kt
SIGMETs :   Divers  Orages  Givrage  Turbulence  Onde Orograph.  Cendres Volcan.






- Altitude de l'aérodrome : 267 ft


EGDR - Culdrose Navy

DERNIER METAR :
  • 251520Z 29021G36KT 9999 VCSH FEW013 SCT018CB 06/02 Q1004 TEMPO 3000 +SHRA SCT006 RMK WHT TEMPO YLO1

METARs EXPIRÉS :
  • 251450Z 28022G39KT 9999 FEW013 SCT018CB 07/01 Q1003 TEMPO 3000 +SHRA SCT006 RMK WHT TEMPO YLO1
  • 251429Z 28018G34KT 9999 VCSH FEW013 FEW018CB SCT020 07/03 Q1003 TEMPO 3000 +SHRA SCT006 RMK WHT TEMPO YLO1
  • 251350Z 28023G44KT 9999 SHGS FEW013 SCT016CB 07/01 Q1004 WHT TEMPO 3000 +SHRA SCT006 BKN015CB RMK WHT TEMPO YLO1
  • 251323Z 27017G29KT 9999 FEW012 FEW016CB SCT020 07/04 Q1004 TEMPO 3000 +SHRA SCT006 BKN015CB RMK WHT TEMPO YLO1

TAF TAF EGDR
Valide du 25 à 15h jusqu'au 26 à 00h UTC


251404Z 2515/2524 28022G35KT 9999 SCT020
TEMPO 2515/2524 5000 SHRA SCT010 BKN016CB
PROB40
TEMPO 2515/2524 28028G50KT 3500 +SHRA SHGS SCT006 BKN015CB
PROB30
TEMPO 2518/2524 3000 SHRASN SCT006 BKN015CB



MET'MAP, la Météo Aéronautique d'un coup d'oeil ! - Copyright ORBIFLY Décembre 2007 - Disclaimer

ORBIFLY MET'MAP TEAM :

Programmation & Développement : Alexandra Zaïnal
Sur une idée originale de : Baudouin d'Aumeries
Assistance à la programmation : Marc-Olivier Méhu
Soutien technique & logistique : Manuel Goepfert

Contact : metmap@orbifly.com




SOURCES & CREDITS :

   NOAA